sensor_id;sensor_type;location;lat;lon;timestamp;pressure;altitude;pressure_sealevel;temperature;humidity
46756;BME280;32506;52.826;-1.192;2024-02-14T00:01:04;100141.88;;;10.41;74.87
46756;BME280;32506;52.826;-1.192;2024-02-14T00:03:29;100143.50;;;10.43;74.59
46756;BME280;32506;52.826;-1.192;2024-02-14T00:05:55;100146.19;;;10.43;74.00
46756;BME280;32506;52.826;-1.192;2024-02-14T00:08:22;100149.44;;;10.45;74.83
46756;BME280;32506;52.826;-1.192;2024-02-14T00:10:48;100142.47;;;10.44;74.10
46756;BME280;32506;52.826;-1.192;2024-02-14T00:13:13;100146.97;;;10.43;74.38
46756;BME280;32506;52.826;-1.192;2024-02-14T00:15:39;100148.41;;;10.46;74.98
46756;BME280;32506;52.826;-1.192;2024-02-14T00:18:05;100152.94;;;10.45;74.59
46756;BME280;32506;52.826;-1.192;2024-02-14T00:20:30;100153.97;;;10.44;74.64
46756;BME280;32506;52.826;-1.192;2024-02-14T00:22:57;100156.41;;;10.46;75.01
46756;BME280;32506;52.826;-1.192;2024-02-14T00:25:23;100156.41;;;10.46;74.51
46756;BME280;32506;52.826;-1.192;2024-02-14T00:27:48;100157.25;;;10.46;74.63
46756;BME280;32506;52.826;-1.192;2024-02-14T00:30:15;100160.72;;;10.47;74.42
46756;BME280;32506;52.826;-1.192;2024-02-14T00:32:40;100155.38;;;10.47;74.45
46756;BME280;32506;52.826;-1.192;2024-02-14T00:35:06;100166.06;;;10.47;74.31
46756;BME280;32506;52.826;-1.192;2024-02-14T00:37:32;100154.34;;;10.48;75.05
46756;BME280;32506;52.826;-1.192;2024-02-14T00:39:58;100163.16;;;10.48;75.47
46756;BME280;32506;52.826;-1.192;2024-02-14T00:42:24;100167.47;;;10.49;75.59
46756;BME280;32506;52.826;-1.192;2024-02-14T00:44:49;100165.84;;;10.48;74.98
46756;BME280;32506;52.826;-1.192;2024-02-14T00:47:15;100170.97;;;10.50;74.44
46756;BME280;32506;52.826;-1.192;2024-02-14T00:49:40;100183.50;;;10.49;74.28
46756;BME280;32506;52.826;-1.192;2024-02-14T00:52:06;100169.13;;;10.50;74.25
46756;BME280;32506;52.826;-1.192;2024-02-14T00:54:31;100156.78;;;10.49;73.85
46756;BME280;32506;52.826;-1.192;2024-02-14T00:56:57;100161.09;;;10.50;73.65
46756;BME280;32506;52.826;-1.192;2024-02-14T00:59:22;100161.09;;;10.50;73.55
46756;BME280;32506;52.826;-1.192;2024-02-14T01:01:50;100154.94;;;10.50;73.94
46756;BME280;32506;52.826;-1.192;2024-02-14T01:04:15;100159.00;;;10.52;74.00
46756;BME280;32506;52.826;-1.192;2024-02-14T01:06:40;100167.88;;;10.53;73.80
46756;BME280;32506;52.826;-1.192;2024-02-14T01:09:06;100178.56;;;10.53;73.89
46756;BME280;32506;52.826;-1.192;2024-02-14T01:11:31;100178.56;;;10.53;73.75
46756;BME280;32506;52.826;-1.192;2024-02-14T01:13:57;100177.50;;;10.54;74.42
46756;BME280;32506;52.826;-1.192;2024-02-14T01:16:24;100189.81;;;10.55;74.91
46756;BME280;32506;52.826;-1.192;2024-02-14T01:18:50;100186.34;;;10.54;74.43
46756;BME280;32506;52.826;-1.192;2024-02-14T01:21:15;100187.97;;;10.55;74.00
46756;BME280;32506;52.826;-1.192;2024-02-14T01:23:43;100184.25;;;10.56;74.40
46756;BME280;32506;52.826;-1.192;2024-02-14T01:26:08;100184.25;;;10.56;74.92
46756;BME280;32506;52.826;-1.192;2024-02-14T01:28:34;100184.25;;;10.56;74.48
46756;BME280;32506;52.826;-1.192;2024-02-14T01:30:59;100182.19;;;10.58;74.58
46756;BME280;32506;52.826;-1.192;2024-02-14T01:33:25;100177.88;;;10.57;74.43
46756;BME280;32506;52.826;-1.192;2024-02-14T01:35:50;100173.94;;;10.60;74.40
46756;BME280;32506;52.826;-1.192;2024-02-14T01:38:16;100175.81;;;10.60;74.22
46756;BME280;32506;52.826;-1.192;2024-02-14T01:40:44;100178.25;;;10.61;74.92
46756;BME280;32506;52.826;-1.192;2024-02-14T01:43:11;100174.75;;;10.61;75.39
46756;BME280;32506;52.826;-1.192;2024-02-14T01:45:37;100171.03;;;10.62;75.09
46756;BME280;32506;52.826;-1.192;2024-02-14T01:48:04;100170.00;;;10.63;75.01
46756;BME280;32506;52.826;-1.192;2024-02-14T01:50:31;100183.13;;;10.64;74.43
46756;BME280;32506;52.826;-1.192;2024-02-14T01:52:58;100172.44;;;10.64;74.71
46756;BME280;32506;52.826;-1.192;2024-02-14T01:55:26;100182.09;;;10.65;75.24
46756;BME280;32506;52.826;-1.192;2024-02-14T01:57:53;100178.41;;;10.66;75.68
46756;BME280;32506;52.826;-1.192;2024-02-14T02:00:20;100178.41;;;10.66;75.32
46756;BME280;32506;52.826;-1.192;2024-02-14T02:02:46;100176.53;;;10.67;75.00
46756;BME280;32506;52.826;-1.192;2024-02-14T02:05:13;100180.84;;;10.68;74.84
46756;BME280;32506;52.826;-1.192;2024-02-14T02:07:39;100176.31;;;10.68;75.18
46756;BME280;32506;52.826;-1.192;2024-02-14T02:10:11;100189.44;;;10.70;75.47
46756;BME280;32506;52.826;-1.192;2024-02-14T02:12:37;100183.06;;;10.71;75.66
46756;BME280;32506;52.826;-1.192;2024-02-14T02:15:07;100183.06;;;10.71;75.83
46756;BME280;32506;52.826;-1.192;2024-02-14T02:17:36;100176.09;;;10.70;75.21
46756;BME280;32506;52.826;-1.192;2024-02-14T02:20:02;100180.41;;;10.71;75.56
46756;BME280;32506;52.826;-1.192;2024-02-14T02:22:27;100173.19;;;10.71;74.92
46756;BME280;32506;52.826;-1.192;2024-02-14T02:24:54;100177.25;;;10.74;75.55
46756;BME280;32506;52.826;-1.192;2024-02-14T02:27:20;100175.66;;;10.73;75.13
46756;BME280;32506;52.826;-1.192;2024-02-14T02:29:45;100171.69;;;10.75;75.31
46756;BME280;32506;52.826;-1.192;2024-02-14T02:32:11;100170.09;;;10.74;75.45
46756;BME280;32506;52.826;-1.192;2024-02-14T02:34:36;100166.34;;;10.75;75.75
46756;BME280;32506;52.826;-1.192;2024-02-14T02:37:05;100164.50;;;10.76;76.04
46756;BME280;32506;52.826;-1.192;2024-02-14T02:39:33;100158.13;;;10.77;75.83
46756;BME280;32506;52.826;-1.192;2024-02-14T02:42:00;100163.25;;;10.79;75.88
46756;BME280;32506;52.826;-1.192;2024-02-14T02:44:26;100158.13;;;10.77;75.81
46756;BME280;32506;52.826;-1.192;2024-02-14T02:46:52;100163.25;;;10.79;75.96
46756;BME280;32506;52.826;-1.192;2024-02-14T02:49:18;100166.72;;;10.79;76.00
46756;BME280;32506;52.826;-1.192;2024-02-14T02:51:43;100179.84;;;10.81;76.36
46756;BME280;32506;52.826;-1.192;2024-02-14T02:54:09;100180.69;;;10.81;75.76
46756;BME280;32506;52.826;-1.192;2024-02-14T02:56:36;100182.31;;;10.82;75.93
46756;BME280;32506;52.826;-1.192;2024-02-14T02:59:02;100176.16;;;10.82;75.52
46756;BME280;32506;52.826;-1.192;2024-02-14T03:01:34;100181.28;;;10.83;76.20
46756;BME280;32506;52.826;-1.192;2024-02-14T03:04:00;100171.41;;;10.84;76.19
46756;BME280;32506;52.826;-1.192;2024-02-14T03:06:25;100155.94;;;10.86;75.93
46756;BME280;32506;52.826;-1.192;2024-02-14T03:08:52;100165.84;;;10.85;75.86
46756;BME280;32506;52.826;-1.192;2024-02-14T03:11:19;100164.81;;;10.86;75.77
46756;BME280;32506;52.826;-1.192;2024-02-14T03:13:45;100163.75;;;10.87;75.80
46756;BME280;32506;52.826;-1.192;2024-02-14T03:16:10;100155.50;;;10.89;76.24
46756;BME280;32506;52.826;-1.192;2024-02-14T03:18:36;100166.78;;;10.91;76.08
46756;BME280;32506;52.826;-1.192;2024-02-14T03:21:03;100152.63;;;10.90;75.88
46756;BME280;32506;52.826;-1.192;2024-02-14T03:23:31;100156.91;;;10.91;75.50
46756;BME280;32506;52.826;-1.192;2024-02-14T03:25:57;100156.69;;;10.93;76.24
46756;BME280;32506;52.826;-1.192;2024-02-14T03:28:22;100159.16;;;10.95;76.57
46756;BME280;32506;52.826;-1.192;2024-02-14T03:30:48;100155.63;;;10.94;76.58
46756;BME280;32506;52.826;-1.192;2024-02-14T03:33:14;100149.03;;;10.97;76.41
46756;BME280;32506;52.826;-1.192;2024-02-14T03:35:40;100144.50;;;10.97;76.67
46756;BME280;32506;52.826;-1.192;2024-02-14T03:38:06;100146.13;;;10.98;76.42
46756;BME280;32506;52.826;-1.192;2024-02-14T03:40:34;100147.75;;;10.99;76.68
46756;BME280;32506;52.826;-1.192;2024-02-14T03:43:01;100142.19;;;11.01;76.81
46756;BME280;32506;52.826;-1.192;2024-02-14T03:45:27;100138.47;;;11.02;76.61
46756;BME280;32506;52.826;-1.192;2024-02-14T03:47:55;100133.94;;;11.02;76.79
46756;BME280;32506;52.826;-1.192;2024-02-14T03:50:22;100135.56;;;11.03;76.41
46756;BME280;32506;52.826;-1.192;2024-02-14T03:52:47;100146.88;;;11.05;76.74
46756;BME280;32506;52.826;-1.192;2024-02-14T03:55:14;100144.19;;;11.05;75.91
46756;BME280;32506;52.826;-1.192;2024-02-14T03:57:42;100149.06;;;11.08;76.14
46756;BME280;32506;52.826;-1.192;2024-02-14T04:00:11;100159.78;;;11.08;76.30
46756;BME280;32506;52.826;-1.192;2024-02-14T04:02:36;100158.75;;;11.10;76.69
46756;BME280;32506;52.826;-1.192;2024-02-14T04:05:02;100154.81;;;11.12;77.07
46756;BME280;32506;52.826;-1.192;2024-02-14T04:07:28;100147.00;;;11.11;76.17
46756;BME280;32506;52.826;-1.192;2024-02-14T04:09:55;100151.06;;;11.13;76.96
46756;BME280;32506;52.826;-1.192;2024-02-14T04:12:20;100158.88;;;11.15;77.17
46756;BME280;32506;52.826;-1.192;2024-02-14T04:14:46;100150.03;;;11.14;77.00
46756;BME280;32506;52.826;-1.192;2024-02-14T04:17:11;100149.78;;;11.16;77.08
46756;BME280;32506;52.826;-1.192;2024-02-14T04:19:38;100156.78;;;11.17;76.50
46756;BME280;32506;52.826;-1.192;2024-02-14T04:22:03;100157.38;;;11.19;77.06
46756;BME280;32506;52.826;-1.192;2024-02-14T04:24:29;100159.00;;;11.20;77.17
46756;BME280;32506;52.826;-1.192;2024-02-14T04:26:55;100154.72;;;11.19;77.12
46756;BME280;32506;52.826;-1.192;2024-02-14T04:29:22;100154.47;;;11.20;76.79
46756;BME280;32506;52.826;-1.192;2024-02-14T04:31:48;100152.38;;;11.22;77.38
46756;BME280;32506;52.826;-1.192;2024-02-14T04:34:14;100149.69;;;11.22;77.19
46756;BME280;32506;52.826;-1.192;2024-02-14T04:36:39;100151.34;;;11.23;77.30
46756;BME280;32506;52.826;-1.192;2024-02-14T04:39:06;100156.47;;;11.25;76.99
46756;BME280;32506;52.826;-1.192;2024-02-14T04:41:32;100165.31;;;11.25;76.48
46756;BME280;32506;52.826;-1.192;2024-02-14T04:44:03;100159.72;;;11.27;77.07
46756;BME280;32506;52.826;-1.192;2024-02-14T04:46:34;100158.91;;;11.27;77.29
46756;BME280;32506;52.826;-1.192;2024-02-14T04:49:01;100156.22;;;11.27;77.01
46756;BME280;32506;52.826;-1.192;2024-02-14T04:51:29;100154.38;;;11.27;76.52
46756;BME280;32506;52.826;-1.192;2024-02-14T04:53:55;100152.50;;;11.28;76.82
46756;BME280;32506;52.826;-1.192;2024-02-14T04:56:24;100149.84;;;11.28;76.75
46756;BME280;32506;52.826;-1.192;2024-02-14T04:58:51;100151.94;;;11.25;75.83
46756;BME280;32506;52.826;-1.192;2024-02-14T05:01:17;100152.50;;;11.28;76.52
46756;BME280;32506;52.826;-1.192;2024-02-14T05:03:43;100150.66;;;11.28;76.72
46756;BME280;32506;52.826;-1.192;2024-02-14T05:06:09;100155.19;;;11.28;76.76
46756;BME280;32506;52.826;-1.192;2024-02-14T05:08:34;100147.16;;;11.28;76.58
46756;BME280;32506;52.826;-1.192;2024-02-14T05:11:00;100143.44;;;11.29;76.21
46756;BME280;32506;52.826;-1.192;2024-02-14T05:13:25;100149.59;;;11.29;76.69
46756;BME280;32506;52.826;-1.192;2024-02-14T05:15:51;100146.72;;;11.31;76.99
46756;BME280;32506;52.826;-1.192;2024-02-14T05:18:16;100145.91;;;11.30;76.93
46756;BME280;32506;52.826;-1.192;2024-02-14T05:20:42;100148.34;;;11.32;77.07
46756;BME280;32506;52.826;-1.192;2024-02-14T05:23:07;100149.97;;;11.33;77.05
46756;BME280;32506;52.826;-1.192;2024-02-14T05:25:34;100167.66;;;11.34;77.34
46756;BME280;32506;52.826;-1.192;2024-02-14T05:28:00;100156.97;;;11.34;76.55
46756;BME280;32506;52.826;-1.192;2024-02-14T05:30:26;100162.31;;;11.34;76.67
46756;BME280;32506;52.826;-1.192;2024-02-14T05:32:51;100149.75;;;11.34;76.27
46756;BME280;32506;52.826;-1.192;2024-02-14T05:35:20;100168.22;;;11.36;76.33
46756;BME280;32506;52.826;-1.192;2024-02-14T05:37:45;100163.72;;;11.36;76.95
46756;BME280;32506;52.826;-1.192;2024-02-14T05:40:14;100164.53;;;11.37;76.79
46756;BME280;32506;52.826;-1.192;2024-02-14T05:42:40;100162.69;;;11.37;76.59
46756;BME280;32506;52.826;-1.192;2024-02-14T05:45:06;100179.53;;;11.38;76.65
46756;BME280;32506;52.826;-1.192;2024-02-14T05:47:34;100172.31;;;11.38;76.22
46756;BME280;32506;52.826;-1.192;2024-02-14T05:50:00;100175.59;;;11.40;76.75
46756;BME280;32506;52.826;-1.192;2024-02-14T05:52:25;100167.56;;;11.40;76.51
46756;BME280;32506;52.826;-1.192;2024-02-14T05:54:51;100163.84;;;11.41;76.43
46756;BME280;32506;52.826;-1.192;2024-02-14T05:57:16;100161.97;;;11.42;76.57
46756;BME280;32506;52.826;-1.192;2024-02-14T05:59:42;100162.78;;;11.42;77.12
46756;BME280;32506;52.826;-1.192;2024-02-14T06:02:08;100170.63;;;11.44;77.19
46756;BME280;32506;52.826;-1.192;2024-02-14T06:04:35;100164.44;;;11.44;76.62
46756;BME280;32506;52.826;-1.192;2024-02-14T06:07:01;100174.91;;;11.45;76.86
46756;BME280;32506;52.826;-1.192;2024-02-14T06:09:26;100169.31;;;11.47;77.18
46756;BME280;32506;52.826;-1.192;2024-02-14T06:11:52;100177.34;;;11.47;77.62
46756;BME280;32506;52.826;-1.192;2024-02-14T06:14:18;100174.47;;;11.48;77.60
46756;BME280;32506;52.826;-1.192;2024-02-14T06:16:44;100177.13;;;11.48;77.39
46756;BME280;32506;52.826;-1.192;2024-02-14T06:19:09;100172.59;;;11.49;77.14
46756;BME280;32506;52.826;-1.192;2024-02-14T06:21:36;100171.31;;;11.51;77.44
46756;BME280;32506;52.826;-1.192;2024-02-14T06:24:01;100164.31;;;11.50;77.14
46756;BME280;32506;52.826;-1.192;2024-02-14T06:26:30;100167.00;;;11.50;77.05
46756;BME280;32506;52.826;-1.192;2024-02-14T06:28:56;100173.75;;;11.53;76.87
46756;BME280;32506;52.826;-1.192;2024-02-14T06:31:22;100177.47;;;11.52;77.10
46756;BME280;32506;52.826;-1.192;2024-02-14T06:33:47;100182.84;;;11.52;76.98
46756;BME280;32506;52.826;-1.192;2024-02-14T06:36:13;100186.09;;;11.54;76.98
46756;BME280;32506;52.826;-1.192;2024-02-14T06:38:39;100181.78;;;11.53;76.77
46756;BME280;32506;52.826;-1.192;2024-02-14T06:41:05;100187.16;;;11.53;76.84
46756;BME280;32506;52.826;-1.192;2024-02-14T06:43:31;100188.78;;;11.54;76.38
46756;BME280;32506;52.826;-1.192;2024-02-14T06:45:56;100194.13;;;11.54;76.77
46756;BME280;32506;52.826;-1.192;2024-02-14T06:48:22;100211.00;;;11.54;76.75
46756;BME280;32506;52.826;-1.192;2024-02-14T06:50:49;100206.69;;;11.53;76.15
46756;BME280;32506;52.826;-1.192;2024-02-14T06:53:15;100200.28;;;11.54;76.50
46756;BME280;32506;52.826;-1.192;2024-02-14T06:55:40;100201.13;;;11.55;76.54
46756;BME280;32506;52.826;-1.192;2024-02-14T06:58:06;100204.84;;;11.54;76.98
46756;BME280;32506;52.826;-1.192;2024-02-14T07:00:32;100202.16;;;11.54;76.54
46756;BME280;32506;52.826;-1.192;2024-02-14T07:02:58;100204.00;;;11.53;75.99
46756;BME280;32506;52.826;-1.192;2024-02-14T07:05:23;100202.97;;;11.54;76.54
46756;BME280;32506;52.826;-1.192;2024-02-14T07:07:51;100211.84;;;11.55;76.17
46756;BME280;32506;52.826;-1.192;2024-02-14T07:10:17;100214.50;;;11.55;75.96
46756;BME280;32506;52.826;-1.192;2024-02-14T07:12:42;100218.00;;;11.55;76.14
46756;BME280;32506;52.826;-1.192;2024-02-14T07:15:08;100213.44;;;11.56;76.05
46756;BME280;32506;52.826;-1.192;2024-02-14T07:17:33;100219.63;;;11.56;76.63
46756;BME280;32506;52.826;-1.192;2024-02-14T07:19:59;100230.34;;;11.56;76.65
46756;BME280;32506;52.826;-1.192;2024-02-14T07:22:24;100226.59;;;11.57;76.70
46756;BME280;32506;52.826;-1.192;2024-02-14T07:24:50;100222.06;;;11.58;76.89
46756;BME280;32506;52.826;-1.192;2024-02-14T07:27:15;100230.09;;;11.58;76.28
46756;BME280;32506;52.826;-1.192;2024-02-14T07:29:44;100224.75;;;11.58;76.69
46756;BME280;32506;52.826;-1.192;2024-02-14T07:32:10;100233.34;;;11.60;76.81
46756;BME280;32506;52.826;-1.192;2024-02-14T07:34:38;100231.50;;;11.61;76.81
46756;BME280;32506;52.826;-1.192;2024-02-14T07:37:04;100227.19;;;11.59;76.89
46756;BME280;32506;52.826;-1.192;2024-02-14T07:39:30;100229.88;;;11.59;76.61
46756;BME280;32506;52.826;-1.192;2024-02-14T07:41:55;100226.97;;;11.61;76.98
46756;BME280;32506;52.826;-1.192;2024-02-14T07:44:22;100228.59;;;11.62;76.98
46756;BME280;32506;52.826;-1.192;2024-02-14T07:46:49;100232.09;;;11.63;77.03
46756;BME280;32506;52.826;-1.192;2024-02-14T07:49:14;100238.28;;;11.63;76.91
46756;BME280;32506;52.826;-1.192;2024-02-14T07:51:40;100236.41;;;11.64;76.94
46756;BME280;32506;52.826;-1.192;2024-02-14T07:54:06;100231.66;;;11.66;76.53
46756;BME280;32506;52.826;-1.192;2024-02-14T07:56:32;100231.41;;;11.67;76.29
46756;BME280;32506;52.826;-1.192;2024-02-14T07:58:58;100226.06;;;11.67;76.23
46756;BME280;32506;52.826;-1.192;2024-02-14T08:01:23;100237.34;;;11.69;76.52
46756;BME280;32506;52.826;-1.192;2024-02-14T08:03:49;100235.50;;;11.70;76.69
46756;BME280;32506;52.826;-1.192;2024-02-14T08:06:14;100240.84;;;11.70;76.19
46756;BME280;32506;52.826;-1.192;2024-02-14T08:08:40;100232.59;;;11.71;76.49
46756;BME280;32506;52.826;-1.192;2024-02-14T08:11:05;100243.88;;;11.73;77.05
46756;BME280;32506;52.826;-1.192;2024-02-14T08:13:31;100228.63;;;11.74;76.66
46756;BME280;32506;52.826;-1.192;2024-02-14T08:15:57;100219.56;;;11.75;76.67
46756;BME280;32506;52.826;-1.192;2024-02-14T08:18:24;100222.81;;;11.77;76.51
46756;BME280;32506;52.826;-1.192;2024-02-14T08:20:49;100235.16;;;11.78;76.36
46756;BME280;32506;52.826;-1.192;2024-02-14T08:23:15;100246.44;;;11.80;76.70
46756;BME280;32506;52.826;-1.192;2024-02-14T08:25:40;100238.22;;;11.82;76.68
46756;BME280;32506;52.826;-1.192;2024-02-14T08:28:09;100239.00;;;11.82;76.79
46756;BME280;32506;52.826;-1.192;2024-02-14T08:30:35;100229.72;;;11.85;76.94
46756;BME280;32506;52.826;-1.192;2024-02-14T08:33:00;100228.44;;;11.87;76.97
46756;BME280;32506;52.826;-1.192;2024-02-14T08:35:26;100228.44;;;11.87;77.14
46756;BME280;32506;52.826;-1.192;2024-02-14T08:37:52;100225.53;;;11.89;77.48
46756;BME280;32506;52.826;-1.192;2024-02-14T08:40:17;100233.31;;;11.90;77.02
46756;BME280;32506;52.826;-1.192;2024-02-14T08:42:43;100225.06;;;11.92;76.79
46756;BME280;32506;52.826;-1.192;2024-02-14T08:45:09;100231.00;;;11.94;77.24
46756;BME280;32506;52.826;-1.192;2024-02-14T08:47:35;100238.03;;;11.95;76.98
46756;BME280;32506;52.826;-1.192;2024-02-14T08:50:03;100234.28;;;11.96;76.85
46756;BME280;32506;52.826;-1.192;2024-02-14T08:52:31;100229.28;;;12.00;76.61
46756;BME280;32506;52.826;-1.192;2024-02-14T08:54:57;100233.63;;;12.01;77.12
46756;BME280;32506;52.826;-1.192;2024-02-14T08:57:23;100243.25;;;12.02;76.76
46756;BME280;32506;52.826;-1.192;2024-02-14T08:59:48;100241.97;;;12.04;77.25
46756;BME280;32506;52.826;-1.192;2024-02-14T09:02:14;100240.72;;;12.07;76.84
46756;BME280;32506;52.826;-1.192;2024-02-14T09:04:42;100240.28;;;12.10;77.17
46756;BME280;32506;52.826;-1.192;2024-02-14T09:07:07;100256.91;;;12.12;77.20
46756;BME280;32506;52.826;-1.192;2024-02-14T09:09:33;100256.69;;;12.14;77.21
46756;BME280;32506;52.826;-1.192;2024-02-14T09:11:59;100254.59;;;12.16;77.28
46756;BME280;32506;52.826;-1.192;2024-02-14T09:14:28;100260.06;;;12.21;77.37
46756;BME280;32506;52.826;-1.192;2024-02-14T09:16:54;100264.16;;;12.23;76.92
46756;BME280;32506;52.826;-1.192;2024-02-14T09:19:19;100265.34;;;12.28;76.66
46756;BME280;32506;52.826;-1.192;2024-02-14T09:21:45;100265.91;;;12.30;76.89
46756;BME280;32506;52.826;-1.192;2024-02-14T09:24:10;100269.97;;;12.32;76.87
46756;BME280;32506;52.826;-1.192;2024-02-14T09:26:36;100265.78;;;12.36;77.05
46756;BME280;32506;52.826;-1.192;2024-02-14T09:29:03;100254.81;;;12.38;76.80
46756;BME280;32506;52.826;-1.192;2024-02-14T09:31:28;100255.44;;;12.40;77.17
46756;BME280;32506;52.826;-1.192;2024-02-14T09:33:54;100257.63;;;12.43;77.13
46756;BME280;32506;52.826;-1.192;2024-02-14T09:36:22;100258.22;;;12.45;76.92
46756;BME280;32506;52.826;-1.192;2024-02-14T09:38:48;100250.75;;;12.47;76.75
46756;BME280;32506;52.826;-1.192;2024-02-14T09:41:47;100254.16;;;12.54;76.65
46756;BME280;32506;52.826;-1.192;2024-02-14T09:44:15;100257.63;;;12.55;76.80
46756;BME280;32506;52.826;-1.192;2024-02-14T09:46:41;100262.53;;;12.58;76.62
46756;BME280;32506;52.826;-1.192;2024-02-14T09:49:07;100255.06;;;12.60;76.56
46756;BME280;32506;52.826;-1.192;2024-02-14T09:51:34;100238.50;;;12.63;76.61
46756;BME280;32506;52.826;-1.192;2024-02-14T09:54:00;100236.44;;;12.65;76.46
46756;BME280;32506;52.826;-1.192;2024-02-14T09:56:28;100244.78;;;12.69;76.43
46756;BME280;32506;52.826;-1.192;2024-02-14T09:58:54;100247.03;;;12.72;76.80
46756;BME280;32506;52.826;-1.192;2024-02-14T10:01:23;100258.31;;;12.74;76.73
46756;BME280;32506;52.826;-1.192;2024-02-14T10:03:53;100262.41;;;12.76;76.98
46756;BME280;32506;52.826;-1.192;2024-02-14T10:06:19;100261.91;;;12.80;76.48
46756;BME280;32506;52.826;-1.192;2024-02-14T10:08:48;100255.28;;;12.82;76.63
46756;BME280;32506;52.826;-1.192;2024-02-14T10:11:14;100254.00;;;12.85;76.43
46756;BME280;32506;52.826;-1.192;2024-02-14T10:13:41;100255.16;;;12.89;76.56
46756;BME280;32506;52.826;-1.192;2024-02-14T10:16:07;100265.44;;;12.92;76.33
46756;BME280;32506;52.826;-1.192;2024-02-14T10:18:34;100264.13;;;12.95;76.31
46756;BME280;32506;52.826;-1.192;2024-02-14T10:21:00;100264.69;;;12.97;76.33
46756;BME280;32506;52.826;-1.192;2024-02-14T10:23:27;100267.72;;;13.00;76.17
46756;BME280;32506;52.826;-1.192;2024-02-14T10:25:53;100267.50;;;13.02;76.20
46756;BME280;32506;52.826;-1.192;2024-02-14T10:28:21;100267.00;;;13.05;76.29
46756;BME280;32506;52.826;-1.192;2024-02-14T10:30:47;100263.03;;;13.07;76.21
46756;BME280;32506;52.826;-1.192;2024-02-14T10:33:15;100281.13;;;13.12;76.14
46756;BME280;32506;52.826;-1.192;2024-02-14T10:35:41;100279.00;;;13.14;76.27
46756;BME280;32506;52.826;-1.192;2024-02-14T10:38:08;100276.44;;;13.19;76.10
46756;BME280;32506;52.826;-1.192;2024-02-14T10:40:35;100271.41;;;13.23;76.18
46756;BME280;32506;52.826;-1.192;2024-02-14T10:43:06;100273.38;;;13.27;76.36
46756;BME280;32506;52.826;-1.192;2024-02-14T10:45:35;100269.41;;;13.30;76.21
46756;BME280;32506;52.826;-1.192;2024-02-14T10:48:01;100266.81;;;13.35;76.00
46756;BME280;32506;52.826;-1.192;2024-02-14T10:50:32;100279.31;;;13.41;75.73
46756;BME280;32506;52.826;-1.192;2024-02-14T10:53:03;100282.91;;;13.47;75.64
46756;BME280;32506;52.826;-1.192;2024-02-14T10:55:30;100289.19;;;13.53;75.58
46756;BME280;32506;52.826;-1.192;2024-02-14T10:57:57;100280.41;;;13.57;75.50
46756;BME280;32506;52.826;-1.192;2024-02-14T11:00:22;100277.03;;;13.62;75.57
46756;BME280;32506;52.826;-1.192;2024-02-14T11:02:50;100278.16;;;13.66;75.53
46756;BME280;32506;52.826;-1.192;2024-02-14T11:05:19;100278.03;;;13.73;75.56
46756;BME280;32506;52.826;-1.192;2024-02-14T11:07:48;100278.91;;;13.79;75.11
46756;BME280;32506;52.826;-1.192;2024-02-14T11:10:21;100277.13;;;13.84;74.84
46756;BME280;32506;52.826;-1.192;2024-02-14T11:12:48;100291.25;;;13.91;74.97
46756;BME280;32506;52.826;-1.192;2024-02-14T11:15:25;100275.28;;;14.02;74.83
46756;BME280;32506;52.826;-1.192;2024-02-14T11:17:50;100281.88;;;14.11;74.56
46756;BME280;32506;52.826;-1.192;2024-02-14T11:20:31;100276.69;;;14.21;74.42
46756;BME280;32506;52.826;-1.192;2024-02-14T11:23:00;100276.59;;;14.33;74.20
46756;BME280;32506;52.826;-1.192;2024-02-14T11:25:30;100282.63;;;14.40;73.95
46756;BME280;32506;52.826;-1.192;2024-02-14T11:27:57;100269.50;;;14.44;73.72
46756;BME280;32506;52.826;-1.192;2024-02-14T11:30:30;100271.78;;;14.52;73.88
46756;BME280;32506;52.826;-1.192;2024-02-14T11:33:23;100269.25;;;14.63;74.07
46756;BME280;32506;52.826;-1.192;2024-02-14T11:35:54;100276.66;;;14.72;73.48
46756;BME280;32506;52.826;-1.192;2024-02-14T11:38:21;100279.00;;;14.86;73.06
46756;BME280;32506;52.826;-1.192;2024-02-14T11:40:47;100282.63;;;14.97;72.73
46756;BME280;32506;52.826;-1.192;2024-02-14T11:43:15;100280.34;;;15.05;72.56
46756;BME280;32506;52.826;-1.192;2024-02-14T11:45:42;100286.16;;;15.19;72.53
46756;BME280;32506;52.826;-1.192;2024-02-14T11:48:10;100271.00;;;15.35;72.08
46756;BME280;32506;52.826;-1.192;2024-02-14T11:50:39;100274.75;;;15.56;72.60
46756;BME280;32506;52.826;-1.192;2024-02-14T11:53:05;100268.47;;;15.78;73.25
46756;BME280;32506;52.826;-1.192;2024-02-14T11:55:34;100275.50;;;16.06;72.74
46756;BME280;32506;52.826;-1.192;2024-02-14T11:57:59;100268.13;;;16.34;72.28
46756;BME280;32506;52.826;-1.192;2024-02-14T12:00:25;100264.88;;;16.70;72.27
46756;BME280;32506;52.826;-1.192;2024-02-14T12:02:51;100262.16;;;17.13;70.65
46756;BME280;32506;52.826;-1.192;2024-02-14T12:05:18;100254.44;;;17.47;69.28
46756;BME280;32506;52.826;-1.192;2024-02-14T12:07:44;100261.22;;;17.75;69.05
46756;BME280;32506;52.826;-1.192;2024-02-14T12:10:10;100269.91;;;18.24;66.98
46756;BME280;32506;52.826;-1.192;2024-02-14T12:12:38;100269.53;;;18.92;63.74
46756;BME280;32506;52.826;-1.192;2024-02-14T12:15:03;100281.19;;;19.48;63.00
46756;BME280;32506;52.826;-1.192;2024-02-14T12:17:31;100287.34;;;19.64;61.46
46756;BME280;32506;52.826;-1.192;2024-02-14T12:20:10;100290.03;;;19.64;61.85
46756;BME280;32506;52.826;-1.192;2024-02-14T12:22:39;100297.16;;;19.55;60.93
46756;BME280;32506;52.826;-1.192;2024-02-14T12:25:07;100276.91;;;19.42;60.99
46756;BME280;32506;52.826;-1.192;2024-02-14T12:27:33;100287.53;;;19.23;60.54
46756;BME280;32506;52.826;-1.192;2024-02-14T12:30:02;100290.06;;;19.04;60.68
46756;BME280;32506;52.826;-1.192;2024-02-14T12:32:28;100297.16;;;18.84;60.62
46756;BME280;32506;52.826;-1.192;2024-02-14T12:34:55;100292.03;;;18.67;60.17
46756;BME280;32506;52.826;-1.192;2024-02-14T12:37:21;100301.81;;;18.53;60.43